Time;durP1;ratioP1;P1;durP2;ratioP2;P2;SDS_P1;SDS_P2;PMS_P1;PMS_P2;Temp;Humidity;BMP_temperature;BMP_pressure;BME280_temperature;BME280_humidity;BME280_pressure;Samples;Min_cycle;Max_cycle;Signal;HPM_P1;HPM_P2
2022/02/26 00:00:14;;;;;;;8.05;2.80;;;1.10;99.90;;;;;;5050760;28;20061;-70
2022/02/26 00:02:45;;;;;;;6.00;2.58;;;1.10;99.90;;;;;;5051491;28;20044;-71
2022/02/26 00:05:17;;;;;;;6.88;3.50;;;1.10;99.90;;;;;;5050588;28;20060;-72
2022/02/26 00:07:49;;;;;;;9.20;3.17;;;1.10;99.90;;;;;;5034638;28;20061;-73
2022/02/26 00:10:16;;;;;;;6.32;3.10;;;1.10;99.90;;;;;;5050503;28;20036;-70
2022/02/26 00:12:48;;;;;;;8.10;2.53;;;1.00;99.90;;;;;;5051169;28;20392;-72
2022/02/26 00:15:15;;;;;;;9.07;2.83;;;1.10;99.90;;;;;;5050320;28;20055;-71
2022/02/26 00:17:47;;;;;;;11.98;3.03;;;1.10;99.90;;;;;;5050341;28;20044;-72
2022/02/26 00:20:18;;;;;;;6.05;2.67;;;1.10;99.90;;;;;;5051665;28;20037;-72
2022/02/26 00:22:50;;;;;;;5.82;2.92;;;1.10;99.90;;;;;;5049678;28;20051;-70
2022/02/26 00:25:22;;;;;;;7.50;3.13;;;1.10;99.90;;;;;;5050020;28;20037;-71
2022/02/26 00:27:53;;;;;;;4.50;2.70;;;1.10;99.90;;;;;;5034349;28;20491;-71
2022/02/26 00:30:25;;;;;;;10.07;3.25;;;1.10;99.90;;;;;;5034396;28;20083;-71
2022/02/26 00:32:57;;;;;;;9.27;3.20;;;1.10;99.90;;;;;;5050581;28;20132;-73
2022/02/26 00:35:29;;;;;;;6.50;3.47;;;1.10;99.90;;;;;;5049979;28;20523;-71
2022/02/26 00:37:56;;;;;;;5.85;3.22;;;1.10;99.90;;;;;;5033486;28;20055;-72
2022/02/26 00:40:28;;;;;;;6.40;3.30;;;1.10;99.90;;;;;;5050100;28;20068;-71
2022/02/26 00:43:01;;;;;;;5.45;2.75;;;1.10;99.90;;;;;;5049410;28;20047;-71
2022/02/26 00:45:33;;;;;;;5.50;3.10;;;1.10;99.90;;;;;;5033959;28;20139;-71
2022/02/26 00:48:05;;;;;;;6.97;3.20;;;1.10;99.90;;;;;;5066370;28;20045;-71
2022/02/26 00:50:36;;;;;;;7.38;3.53;;;1.20;99.90;;;;;;5065673;28;20037;-73
2022/02/26 00:53:08;;;;;;;7.88;3.53;;;1.10;99.90;;;;;;5050444;28;20554;-71
2022/02/26 00:55:40;;;;;;;4.70;3.00;;;1.10;99.90;;;;;;5049638;28;20564;-71
2022/02/26 00:58:07;;;;;;;6.40;3.53;;;1.20;99.90;;;;;;5051017;28;20267;-72
2022/02/26 01:00:38;;;;;;;8.35;3.80;;;1.10;99.90;;;;;;5049642;28;20046;-71
2022/02/26 01:03:10;;;;;;;8.25;3.67;;;1.10;99.90;;;;;;5049762;28;20048;-71
2022/02/26 01:05:42;;;;;;;7.63;3.67;;;1.10;99.90;;;;;;5052112;28;20415;-72
2022/02/26 01:08:14;;;;;;;8.63;4.05;;;1.20;99.90;;;;;;5049494;28;20041;-72
2022/02/26 01:10:46;;;;;;;10.70;3.80;;;1.20;99.90;;;;;;5073230;28;20045;-71
2022/02/26 01:13:19;;;;;;;8.10;3.90;;;1.20;99.90;;;;;;5049781;28;20111;-72
2022/02/26 01:15:51;;;;;;;8.00;4.00;;;1.20;99.90;;;;;;5049850;28;20045;-72
2022/02/26 01:18:18;;;;;;;9.77;4.00;;;1.20;99.90;;;;;;5061886;28;20135;-72
2022/02/26 01:20:50;;;;;;;5.43;2.97;;;1.30;99.90;;;;;;5068440;28;20062;-71
2022/02/26 01:23:22;;;;;;;8.25;4.10;;;1.30;99.90;;;;;;5049246;28;20055;-71
2022/02/26 01:25:53;;;;;;;9.02;4.68;;;1.30;99.90;;;;;;5051034;28;20116;-72
2022/02/26 01:28:21;;;;;;;10.77;4.28;;;1.30;99.90;;;;;;5051091;28;20523;-71
2022/02/26 01:30:48;;;;;;;6.57;3.88;;;1.40;99.90;;;;;;5033243;28;20144;-73
2022/02/26 01:33:19;;;;;;;9.68;4.32;;;1.40;99.90;;;;;;5048972;28;20475;-73
2022/02/26 01:35:47;;;;;;;12.48;4.40;;;1.40;99.90;;;;;;5049796;28;20045;-71
2022/02/26 01:38:19;;;;;;;9.88;3.83;;;1.50;99.90;;;;;;5033885;28;20045;-72
2022/02/26 01:40:50;;;;;;;11.38;4.13;;;1.50;99.90;;;;;;5050751;28;20040;-71
2022/02/26 01:43:22;;;;;;;10.40;5.00;;;1.50;99.90;;;;;;5050277;28;20100;-73
2022/02/26 01:45:54;;;;;;;6.70;3.63;;;1.40;99.90;;;;;;5050903;28;20068;-71
2022/02/26 01:48:26;;;;;;;8.70;4.03;;;1.40;99.90;;;;;;5049577;28;20045;-71
2022/02/26 01:50:58;;;;;;;8.80;3.60;;;1.40;99.90;;;;;;5050782;28;20049;-71
2022/02/26 01:53:30;;;;;;;11.20;4.20;;;1.40;99.90;;;;;;5050250;28;20045;-71
2022/02/26 01:56:04;;;;;;;9.30;4.13;;;1.40;99.90;;;;;;5050869;28;20139;-72
2022/02/26 01:58:31;;;;;;;6.93;4.00;;;1.40;99.90;;;;;;5049616;28;20063;-71
2022/02/26 02:01:04;;;;;;;7.50;3.92;;;1.30;99.90;;;;;;5048705;28;20127;-71
2022/02/26 02:03:36;;;;;;;8.90;3.90;;;1.30;99.90;;;;;;5047953;28;20053;-71
2022/02/26 02:06:03;;;;;;;10.13;4.57;;;1.20;99.90;;;;;;5048586;28;20045;-73
2022/02/26 02:08:35;;;;;;;9.63;4.25;;;1.20;99.90;;;;;;5049830;28;20061;-71
2022/02/26 02:11:07;;;;;;;10.50;4.68;;;1.20;99.90;;;;;;5048970;28;20045;-72
2022/02/26 02:13:39;;;;;;;8.13;4.43;;;1.10;99.90;;;;;;5049509;28;20043;-72
2022/02/26 02:16:10;;;;;;;12.50;4.47;;;1.10;99.90;;;;;;5048944;28;20453;-71
2022/02/26 02:18:42;;;;;;;10.50;4.82;;;1.10;99.90;;;;;;5048631;28;20123;-72
2022/02/26 02:21:15;;;;;;;7.20;4.30;;;1.20;99.90;;;;;;5051340;28;20041;-71
2022/02/26 02:23:47;;;;;;;7.28;3.90;;;1.20;99.90;;;;;;5052064;28;20149;-71
2022/02/26 02:26:19;;;;;;;9.50;4.85;;;1.20;99.90;;;;;;5053792;28;20123;-71
2022/02/26 02:28:51;;;;;;;8.23;4.72;;;1.20;99.90;;;;;;5052097;28;20044;-71
2022/02/26 02:31:23;;;;;;;8.15;4.25;;;1.20;99.90;;;;;;5052575;28;20041;-72
2022/02/26 02:33:55;;;;;;;6.72;4.75;;;1.20;99.90;;;;;;5051774;28;20503;-72
2022/02/26 02:36:27;;;;;;;11.77;4.20;;;1.10;99.90;;;;;;5052152;28;20059;-72
2022/02/26 02:38:59;;;;;;;8.63;4.90;;;1.10;99.90;;;;;;5052101;28;20124;-72
2022/02/26 02:41:31;;;;;;;9.23;6.10;;;1.00;99.90;;;;;;5053506;28;20415;-72
2022/02/26 02:44:03;;;;;;;13.40;6.10;;;1.00;99.90;;;;;;5035680;28;20048;-72
2022/02/26 02:46:35;;;;;;;9.05;5.40;;;1.00;99.90;;;;;;5051849;28;20040;-73
2022/02/26 02:49:02;;;;;;;9.80;5.60;;;0.90;99.90;;;;;;5052114;28;20480;-72
2022/02/26 02:51:34;;;;;;;9.30;6.70;;;0.90;99.90;;;;;;5053344;28;20037;-72
2022/02/26 02:54:05;;;;;;;11.02;5.88;;;0.90;99.90;;;;;;5052690;28;20051;-72
2022/02/26 02:56:37;;;;;;;16.15;6.90;;;1.00;99.90;;;;;;5052987;28;20041;-72
2022/02/26 02:59:09;;;;;;;12.63;6.70;;;1.00;99.90;;;;;;5068516;28;20060;-72
2022/02/26 03:01:41;;;;;;;11.38;6.75;;;1.00;99.90;;;;;;5052049;28;20045;-72
2022/02/26 03:04:13;;;;;;;9.07;7.00;;;1.00;99.90;;;;;;5052504;28;20051;-72
2022/02/26 03:06:40;;;;;;;13.40;7.07;;;1.00;99.90;;;;;;5050658;28;20059;-71
2022/02/26 03:09:08;;;;;;;9.43;6.50;;;1.00;99.90;;;;;;5051657;28;20048;-72
2022/02/26 03:11:40;;;;;;;12.60;6.60;;;1.00;99.90;;;;;;5051417;28;20119;-72
2022/02/26 03:14:11;;;;;;;11.95;6.53;;;1.00;99.90;;;;;;5051012;28;20041;-72
2022/02/26 03:16:43;;;;;;;10.35;6.60;;;0.90;99.90;;;;;;5051521;28;20049;-72
2022/02/26 03:19:15;;;;;;;13.25;6.57;;;0.90;99.90;;;;;;5068227;28;20140;-74
2022/02/26 03:21:48;;;;;;;12.80;7.22;;;0.90;99.90;;;;;;5051310;28;20413;-73
2022/02/26 03:24:20;;;;;;;9.95;6.95;;;0.90;99.90;;;;;;5050883;28;20482;-73
2022/02/26 03:26:53;;;;;;;11.25;6.30;;;0.80;99.90;;;;;;5051254;28;20523;-72
2022/02/26 03:29:28;;;;;;;13.00;7.28;;;0.80;99.90;;;;;;5052664;28;20040;-72
2022/02/26 03:32:00;;;;;;;10.93;6.20;;;0.90;99.90;;;;;;5035085;28;20055;-73
2022/02/26 03:34:27;;;;;;;12.40;7.63;;;0.80;99.90;;;;;;5051907;28;20132;-72
2022/02/26 03:36:59;;;;;;;10.77;6.88;;;0.90;99.90;;;;;;5051053;28;20153;-73
2022/02/26 03:39:31;;;;;;;13.85;6.45;;;0.90;99.90;;;;;;5051307;28;20550;-71
2022/02/26 03:42:06;;;;;;;14.05;6.40;;;0.80;99.90;;;;;;5067533;28;20047;-72
2022/02/26 03:44:38;;;;;;;11.00;6.15;;;0.80;99.90;;;;;;5034743;28;20140;-73
2022/02/26 03:47:10;;;;;;;9.68;6.35;;;0.80;99.90;;;;;;5035070;28;20491;-72
2022/02/26 03:49:46;;;;;;;10.35;6.40;;;0.90;99.90;;;;;;5052275;28;20029;-72
2022/02/26 03:52:20;;;;;;;12.40;7.07;;;0.90;99.90;;;;;;5036266;28;20032;-73
2022/02/26 03:54:52;;;;;;;11.68;5.93;;;0.90;99.90;;;;;;5050857;28;20052;-72
2022/02/26 03:57:24;;;;;;;14.45;6.32;;;0.90;99.90;;;;;;5067402;28;20071;-72
2022/02/26 03:59:56;;;;;;;11.23;7.00;;;0.90;99.90;;;;;;5050422;28;20048;-72
2022/02/26 04:02:37;;;;;;;10.38;6.05;;;0.90;99.90;;;;;;5050317;28;20048;-72
2022/02/26 04:05:05;;;;;;;13.07;6.47;;;0.90;99.90;;;;;;5051449;28;20846;-71
2022/02/26 04:07:40;;;;;;;14.15;6.60;;;0.90;99.90;;;;;;5034698;28;20123;-71
2022/02/26 04:10:07;;;;;;;12.65;6.97;;;0.90;99.90;;;;;;5034048;28;20132;-72
2022/02/26 04:12:39;;;;;;;13.18;6.70;;;0.90;99.90;;;;;;5049775;28;20041;-72
2022/02/26 04:15:07;;;;;;;11.25;5.63;;;0.90;99.90;;;;;;5050473;28;20123;-72
2022/02/26 04:17:38;;;;;;;11.40;5.97;;;0.90;99.90;;;;;;5050907;28;20516;-72
2022/02/26 04:20:11;;;;;;;12.63;7.68;;;0.90;99.90;;;;;;5050575;28;20490;-72
2022/02/26 04:22:42;;;;;;;18.27;6.43;;;0.90;99.90;;;;;;5050559;28;20049;-72
2022/02/26 04:25:14;;;;;;;10.57;6.53;;;0.90;99.90;;;;;;5034911;28;20045;-72
2022/02/26 04:27:46;;;;;;;12.52;6.90;;;0.90;99.90;;;;;;5050775;28;20041;-72
2022/02/26 04:30:18;;;;;;;10.90;6.40;;;0.90;99.90;;;;;;5050369;28;20131;-72
2022/02/26 04:32:50;;;;;;;13.48;5.97;;;0.90;99.90;;;;;;5050039;28;20127;-72
2022/02/26 04:35:22;;;;;;;11.10;6.38;;;0.90;99.90;;;;;;5050766;28;20043;-72
2022/02/26 04:37:49;;;;;;;9.90;5.38;;;1.00;99.90;;;;;;5067232;28;20048;-72
2022/02/26 04:40:20;;;;;;;13.93;5.55;;;1.00;99.90;;;;;;5051497;28;20047;-72
2022/02/26 04:42:47;;;;;;;9.35;6.00;;;1.00;99.90;;;;;;5049929;28;20507;-74
2022/02/26 04:45:15;;;;;;;12.25;5.78;;;1.00;99.90;;;;;;5051170;28;20044;-71
2022/02/26 04:47:43;;;;;;;12.93;5.63;;;1.00;99.90;;;;;;5050300;28;20135;-72
2022/02/26 04:50:15;;;;;;;10.57;5.63;;;1.00;99.90;;;;;;5050063;28;20033;-71
2022/02/26 04:52:42;;;;;;;12.70;6.07;;;1.00;99.90;;;;;;5049500;28;20128;-72
2022/02/26 04:55:14;;;;;;;10.75;6.82;;;1.00;99.90;;;;;;5034493;28;20041;-72
2022/02/26 04:57:47;;;;;;;10.32;5.55;;;1.00;99.90;;;;;;5051036;28;20124;-71
2022/02/26 05:00:14;;;;;;;9.48;6.50;;;1.10;99.90;;;;;;5051233;28;20068;-72
2022/02/26 05:02:46;;;;;;;11.23;5.57;;;1.10;99.90;;;;;;5033609;28;20090;-72
2022/02/26 05:05:18;;;;;;;9.57;6.75;;;1.10;99.90;;;;;;5050080;28;20080;-71
2022/02/26 05:07:45;;;;;;;8.30;5.38;;;1.10;99.90;;;;;;5050093;28;20583;-71
2022/02/26 05:10:13;;;;;;;7.63;5.63;;;1.10;99.90;;;;;;5050034;28;20687;-72
2022/02/26 05:12:42;;;;;;;8.23;5.57;;;1.10;99.90;;;;;;5066187;28;20072;-73
2022/02/26 05:15:13;;;;;;;8.65;5.80;;;1.10;99.90;;;;;;5051231;28;20131;-71
2022/02/26 05:17:41;;;;;;;9.13;5.53;;;1.10;99.90;;;;;;5050922;28;20033;-72
2022/02/26 05:20:14;;;;;;;8.25;5.25;;;1.10;99.90;;;;;;5034132;28;20110;-72
2022/02/26 05:22:42;;;;;;;9.13;5.20;;;1.10;99.90;;;;;;5032954;28;20139;-72
2022/02/26 05:25:14;;;;;;;10.27;5.63;;;1.00;99.90;;;;;;5049667;28;20128;-71
2022/02/26 05:27:41;;;;;;;9.98;5.85;;;1.00;99.90;;;;;;5051079;28;20033;-72
2022/02/26 05:30:15;;;;;;;9.57;6.38;;;1.00;99.90;;;;;;5049909;28;20043;-72
2022/02/26 05:32:42;;;;;;;9.13;6.13;;;1.00;99.90;;;;;;5049175;28;20125;-72
2022/02/26 05:35:14;;;;;;;9.52;5.95;;;1.00;99.90;;;;;;5033738;28;20120;-72
2022/02/26 05:37:47;;;;;;;11.18;5.82;;;1.10;99.90;;;;;;5045030;28;20045;-72
2022/02/26 05:40:14;;;;;;;9.00;5.38;;;1.00;99.90;;;;;;5031097;28;20657;-71
2022/02/26 05:42:45;;;;;;;9.38;5.60;;;1.00;99.90;;;;;;5047352;28;20769;-72
2022/02/26 05:45:17;;;;;;;9.95;5.18;;;1.00;99.90;;;;;;5048296;28;20131;-72
2022/02/26 05:47:49;;;;;;;10.10;5.25;;;1.00;99.90;;;;;;5064944;28;20115;-71
2022/02/26 05:50:16;;;;;;;10.07;5.65;;;1.00;99.90;;;;;;5049314;28;20112;-71
2022/02/26 05:52:48;;;;;;;9.05;5.43;;;0.90;99.90;;;;;;5048922;28;20047;-71
2022/02/26 05:55:19;;;;;;;9.43;5.53;;;1.00;99.90;;;;;;5051896;28;20068;-71
2022/02/26 05:57:51;;;;;;;11.00;5.20;;;1.00;99.90;;;;;;5054424;28;20095;-72
2022/02/26 06:00:24;;;;;;;9.90;6.75;;;1.00;99.90;;;;;;5051825;28;20418;-72
2022/02/26 06:02:56;;;;;;;8.88;5.50;;;0.90;99.90;;;;;;5049082;28;20045;-72
2022/02/26 06:05:27;;;;;;;9.18;5.25;;;1.00;99.90;;;;;;5052282;28;20136;-72
2022/02/26 06:07:59;;;;;;;9.20;5.50;;;1.00;99.90;;;;;;5054585;28;20044;-71
2022/02/26 06:10:31;;;;;;;9.43;5.20;;;1.00;99.90;;;;;;5046678;28;20461;-71
2022/02/26 06:12:58;;;;;;;12.48;5.95;;;1.00;99.90;;;;;;5067155;28;20443;-71
2022/02/26 06:15:30;;;;;;;13.40;5.53;;;1.10;99.90;;;;;;5054280;28;20040;-73
2022/02/26 06:17:57;;;;;;;10.25;4.93;;;1.10;99.90;;;;;;5036461;28;20519;-71
2022/02/26 06:20:29;;;;;;;11.75;6.30;;;1.10;99.90;;;;;;5037062;28;20072;-72
2022/02/26 06:23:01;;;;;;;8.15;4.70;;;1.10;99.90;;;;;;5054087;28;20045;-73
2022/02/26 06:25:32;;;;;;;15.30;7.03;;;1.30;99.90;;;;;;5054262;28;20041;-71
2022/02/26 06:27:59;;;;;;;12.90;6.47;;;1.60;99.90;;;;;;5054198;28;20381;-70
2022/02/26 06:30:31;;;;;;;10.48;6.05;;;1.60;99.90;;;;;;5053841;28;20033;-73
2022/02/26 06:33:03;;;;;;;12.10;7.18;;;1.50;99.90;;;;;;5054303;28;20094;-71
2022/02/26 06:35:35;;;;;;;13.18;7.70;;;1.50;99.90;;;;;;5072807;28;20503;-71
2022/02/26 06:38:07;;;;;;;11.93;7.75;;;1.50;99.90;;;;;;5072767;28;20063;-71
2022/02/26 06:40:38;;;;;;;13.57;7.00;;;1.40;99.90;;;;;;5054006;28;20581;-71
2022/02/26 06:43:10;;;;;;;15.05;6.80;;;1.40;99.90;;;;;;5052177;28;20466;-72
2022/02/26 06:45:37;;;;;;;15.70;6.10;;;1.40;99.90;;;;;;5053716;28;20068;-71
2022/02/26 06:48:09;;;;;;;9.88;6.60;;;1.40;99.90;;;;;;5050205;28;20037;-72
2022/02/26 06:50:36;;;;;;;10.95;6.70;;;1.40;99.90;;;;;;5061678;28;20098;-72
2022/02/26 06:53:08;;;;;;;12.10;6.55;;;1.40;99.90;;;;;;5052999;28;20116;-72
2022/02/26 06:55:40;;;;;;;13.25;8.15;;;1.40;99.90;;;;;;5052219;28;20041;-72
2022/02/26 06:58:07;;;;;;;15.98;8.55;;;1.40;99.90;;;;;;5053237;28;20478;-74
2022/02/26 07:00:39;;;;;;;18.05;8.15;;;1.50;99.90;;;;;;5052059;28;20136;-72
2022/02/26 07:03:10;;;;;;;14.18;8.27;;;1.40;99.90;;;;;;5052509;28;20116;-72
2022/02/26 07:05:42;;;;;;;16.40;8.40;;;1.40;99.90;;;;;;5054894;28;20105;-73
2022/02/26 07:08:14;;;;;;;17.27;9.48;;;1.40;99.90;;;;;;5059541;28;20036;-72
2022/02/26 07:10:46;;;;;;;18.30;9.18;;;1.30;99.90;;;;;;5061501;28;20097;-72
2022/02/26 07:13:18;;;;;;;29.20;11.20;;;1.40;99.90;;;;;;5063847;28;20102;-72
2022/02/26 07:15:49;;;;;;;25.90;11.18;;;1.40;99.90;;;;;;5067153;28;20136;-72
2022/02/26 07:18:21;;;;;;;22.42;9.95;;;1.40;99.90;;;;;;5051830;28;20124;-72
2022/02/26 07:20:53;;;;;;;23.35;9.40;;;1.40;99.90;;;;;;5049878;28;20041;-72
2022/02/26 07:23:25;;;;;;;23.33;9.50;;;1.50;99.90;;;;;;5036725;28;20495;-73
2022/02/26 07:25:52;;;;;;;15.27;7.88;;;1.50;99.90;;;;;;5053852;28;20052;-73
2022/02/26 07:28:24;;;;;;;17.08;7.53;;;1.50;99.90;;;;;;5058008;28;20495;-73
2022/02/26 07:30:55;;;;;;;17.98;8.88;;;1.60;99.90;;;;;;5052423;28;20041;-73
2022/02/26 07:33:22;;;;;;;15.80;8.77;;;1.60;99.90;;;;;;5067724;28;20182;-73
2022/02/26 07:35:54;;;;;;;11.77;8.48;;;1.60;99.90;;;;;;5071774;28;20064;-74
2022/02/26 07:38:21;;;;;;;15.68;7.22;;;1.70;99.90;;;;;;5071985;28;20521;-73
2022/02/26 07:40:48;;;;;;;13.05;8.07;;;1.70;99.90;;;;;;5074195;28;20076;-74
2022/02/26 07:43:20;;;;;;;17.60;7.93;;;1.80;99.90;;;;;;5054855;28;20132;-74
2022/02/26 07:45:48;;;;;;;12.18;6.90;;;1.80;99.90;;;;;;5049583;28;20397;-73
2022/02/26 07:48:20;;;;;;;13.70;6.53;;;1.90;99.90;;;;;;5066997;28;20037;-73
2022/02/26 07:50:47;;;;;;;13.38;6.30;;;1.90;99.90;;;;;;5051711;28;20071;-73
2022/02/26 07:53:20;;;;;;;10.73;6.68;;;2.00;99.90;;;;;;5052009;28;20126;-73
2022/02/26 07:55:52;;;;;;;12.02;6.32;;;2.30;99.90;;;;;;5051634;28;20041;-72
2022/02/26 07:58:21;;;;;;;11.52;6.15;;;2.60;99.90;;;;;;5050331;28;20056;-73
2022/02/26 08:00:48;;;;;;;10.32;5.70;;;2.70;99.90;;;;;;5050005;28;20102;-73
2022/02/26 08:03:20;;;;;;;10.48;6.25;;;2.70;99.90;;;;;;5050036;28;20132;-72
2022/02/26 08:05:51;;;;;;;8.98;5.75;;;2.60;99.90;;;;;;5051727;28;20132;-73
2022/02/26 08:08:23;;;;;;;12.25;6.60;;;2.50;99.90;;;;;;5058925;28;20036;-71
2022/02/26 08:10:55;;;;;;;9.30;4.47;;;2.40;99.90;;;;;;5051980;28;20037;-71
2022/02/26 08:13:22;;;;;;;14.13;5.85;;;2.40;99.90;;;;;;5033493;28;20048;-71
2022/02/26 08:15:53;;;;;;;10.88;6.25;;;2.50;99.90;;;;;;5051790;28;20037;-71
2022/02/26 08:18:25;;;;;;;13.23;6.40;;;2.50;99.90;;;;;;5049334;28;20138;-71
2022/02/26 08:20:58;;;;;;;9.80;5.05;;;2.40;99.90;;;;;;5050754;28;20063;-71
2022/02/26 08:23:25;;;;;;;7.97;5.65;;;2.40;99.90;;;;;;5050914;28;20132;-72
2022/02/26 08:25:57;;;;;;;12.27;5.72;;;2.40;99.90;;;;;;5050484;28;20060;-71
2022/02/26 08:28:29;;;;;;;14.05;7.53;;;2.40;99.90;;;;;;5066069;28;20033;-71
2022/02/26 08:31:00;;;;;;;13.35;6.70;;;2.40;99.90;;;;;;5050309;28;20068;-70
2022/02/26 08:33:32;;;;;;;11.77;5.78;;;2.40;99.90;;;;;;5049762;28;20120;-71
2022/02/26 08:36:04;;;;;;;10.15;5.78;;;2.40;99.90;;;;;;5051451;28;20381;-73
2022/02/26 08:38:36;;;;;;;12.93;6.18;;;2.40;99.90;;;;;;5051521;28;20076;-73
2022/02/26 08:41:07;;;;;;;8.70;5.22;;;2.50;99.90;;;;;;5051598;28;20494;-71
2022/02/26 08:43:39;;;;;;;11.88;6.18;;;2.60;99.90;;;;;;5050882;28;20111;-72
2022/02/26 08:46:11;;;;;;;6.97;4.22;;;2.70;99.90;;;;;;5051054;28;20068;-71
2022/02/26 08:48:43;;;;;;;12.80;3.95;;;2.90;99.90;;;;;;5051424;28;20037;-72
2022/02/26 08:51:09;;;;;;;8.88;3.90;;;3.10;99.90;;;;;;5049700;28;20076;-71
2022/02/26 08:53:41;;;;;;;9.52;3.90;;;3.20;99.90;;;;;;5053743;28;20112;-72
2022/02/26 08:56:13;;;;;;;6.75;2.60;;;3.20;99.90;;;;;;5050070;28;20147;-72
2022/02/26 08:58:45;;;;;;;9.05;2.30;;;3.30;99.90;;;;;;5059420;28;20048;-71
2022/02/26 09:01:12;;;;;;;5.63;2.17;;;3.30;99.90;;;;;;5053106;28;20448;-72
2022/02/26 09:03:43;;;;;;;9.07;2.45;;;3.30;99.90;;;;;;5061463;28;20115;-72
2022/02/26 09:06:16;;;;;;;4.55;2.47;;;3.30;99.90;;;;;;5051553;28;20052;-72
2022/02/26 09:08:48;;;;;;;6.90;1.83;;;3.30;99.90;;;;;;5050799;28;20076;-71
2022/02/26 09:11:19;;;;;;;6.47;2.10;;;3.40;99.90;;;;;;5050514;28;20067;-72
2022/02/26 09:13:47;;;;;;;3.75;1.10;;;3.40;99.90;;;;;;5048675;28;20076;-72
2022/02/26 09:16:19;;;;;;;6.35;1.48;;;3.40;99.90;;;;;;5062022;28;20153;-72
2022/02/26 09:18:45;;;;;;;8.80;2.28;;;3.30;99.90;;;;;;5070779;28;20146;-71
2022/02/26 09:21:17;;;;;;;6.78;1.60;;;3.30;99.90;;;;;;5069644;28;20124;-72
2022/02/26 09:23:49;;;;;;;3.75;1.33;;;3.30;99.90;;;;;;5068728;28;20507;-73
2022/02/26 09:26:21;;;;;;;3.95;1.20;;;3.30;99.90;;;;;;5070386;28;20037;-71
2022/02/26 09:28:53;;;;;;;38.42;9.82;;;3.30;99.90;;;;;;5052709;28;20128;-72
2022/02/26 09:31:25;;;;;;;11.60;4.72;;;3.30;99.90;;;;;;5050099;28;20503;-71
2022/02/26 09:33:52;;;;;;;10.52;2.97;;;3.30;99.90;;;;;;5057553;28;20063;-71
2022/02/26 09:36:19;;;;;;;18.33;5.53;;;3.30;99.90;;;;;;5069110;28;20060;-72
2022/02/26 09:38:46;;;;;;;18.52;6.78;;;3.30;99.90;;;;;;5053813;28;20664;-72
2022/02/26 09:41:18;;;;;;;8.05;3.50;;;3.30;99.90;;;;;;5049203;28;20510;-72
2022/02/26 09:43:50;;;;;;;8.85;3.28;;;3.40;99.90;;;;;;5048579;28;20119;-71
2022/02/26 09:46:22;;;;;;;9.10;2.78;;;3.40;99.90;;;;;;5055251;28;20041;-71
2022/02/26 09:48:49;;;;;;;7.00;2.78;;;3.50;99.90;;;;;;5044876;28;20122;-72
2022/02/26 09:51:22;;;;;;;7.57;2.13;;;3.60;99.90;;;;;;5048966;28;20045;-72
2022/02/26 09:53:50;;;;;;;16.45;4.68;;;3.80;99.90;;;;;;5048417;28;20064;-72
2022/02/26 09:56:17;;;;;;;3.78;1.00;;;3.90;99.90;;;;;;5041365;28;20611;-71
2022/02/26 09:58:50;;;;;;;13.65;3.65;;;3.90;99.90;;;;;;5058331;28;20056;-72
2022/02/26 10:01:22;;;;;;;13.80;3.08;;;3.90;99.90;;;;;;5048776;28;20132;-73
2022/02/26 10:04:07;;;;;;;6.95;1.60;;;3.80;99.90;;;;;;5049903;28;20076;-72
2022/02/26 10:06:39;;;;;;;10.60;1.98;;;3.70;99.90;;;;;;5050194;28;20072;-72
2022/02/26 10:09:13;;;;;;;8.38;1.90;;;3.70;99.90;;;;;;5050137;28;20644;-74
2022/02/26 10:11:45;;;;;;;10.82;2.92;;;3.70;99.90;;;;;;5048247;28;20460;-72
2022/02/26 10:14:18;;;;;;;7.28;2.15;;;3.70;99.90;;;;;;5049176;28;20144;-73
2022/02/26 10:16:54;;;;;;;7.03;2.72;;;3.70;99.90;;;;;;5048971;28;20063;-71
2022/02/26 10:19:27;;;;;;;7.30;3.05;;;3.60;99.90;;;;;;5049001;28;20067;-72
2022/02/26 10:22:08;;;;;;;10.82;2.13;;;3.60;99.90;;;;;;5048834;28;20524;-72
2022/02/26 10:24:40;;;;;;;16.85;3.63;;;3.60;99.90;;;;;;5049493;28;20503;-72
2022/02/26 10:27:11;;;;;;;9.43;2.17;;;3.50;99.90;;;;;;5050034;28;20436;-72
2022/02/26 10:29:42;;;;;;;8.75;1.63;;;3.50;99.90;;;;;;5048553;28;20128;-72
2022/02/26 10:32:21;;;;;;;6.45;1.67;;;3.60;99.90;;;;;;5048944;28;20124;-72
2022/02/26 10:34:54;;;;;;;10.23;1.75;;;3.70;99.90;;;;;;5032507;28;20578;-72
2022/02/26 10:37:22;;;;;;;6.45;1.25;;;4.00;99.90;;;;;;5050423;28;20444;-72
2022/02/26 10:39:56;;;;;;;5.30;1.33;;;4.20;99.90;;;;;;5049136;28;20049;-71
2022/02/26 10:42:32;;;;;;;5.35;1.10;;;4.50;99.90;;;;;;5033442;28;20423;-71
2022/02/26 10:45:12;;;;;;;4.05;0.95;;;4.60;99.90;;;;;;5068414;28;20128;-71
2022/02/26 10:47:44;;;;;;;7.70;1.98;;;4.60;99.90;;;;;;5053814;28;20048;-71
2022/02/26 10:50:20;;;;;;;5.28;1.52;;;4.70;99.90;;;;;;5052594;28;20041;-71
2022/02/26 10:53:04;;;;;;;9.13;1.00;;;4.70;99.90;;;;;;5051557;28;20131;-72
2022/02/26 10:55:57;;;;;;;4.05;1.20;;;4.80;99.40;;;;;;5033696;28;20492;-72
2022/02/26 10:58:29;;;;;;;14.88;2.30;;;4.70;98.40;;;;;;5043037;28;20132;-71
2022/02/26 11:01:01;;;;;;;10.82;1.70;;;4.70;99.90;;;;;;5052417;28;20074;-71
2022/02/26 11:03:34;;;;;;;18.52;4.35;;;4.60;99.90;;;;;;5051736;28;20041;-72
2022/02/26 11:06:09;;;;;;;8.95;2.40;;;4.60;99.70;;;;;;5053649;28;20069;-71
2022/02/26 11:08:42;;;;;;;11.10;2.33;;;4.60;99.90;;;;;;5052772;28;20564;-72
2022/02/26 11:11:14;;;;;;;13.45;3.83;;;4.50;99.90;;;;;;5053473;28;20051;-71
2022/02/26 11:13:50;;;;;;;8.85;2.97;;;4.50;99.90;;;;;;5051400;28;20041;-70
2022/02/26 11:16:23;;;;;;;17.73;5.40;;;4.50;99.90;;;;;;5052399;28;20033;-71
2022/02/26 11:18:58;;;;;;;22.95;7.07;;;4.50;99.90;;;;;;5052167;28;20061;-71
2022/02/26 11:21:25;;;;;;;46.58;15.48;;;4.50;99.90;;;;;;5052046;28;20077;-71
2022/02/26 11:23:58;;;;;;;19.33;5.53;;;4.60;99.90;;;;;;5035513;28;20045;-71
2022/02/26 11:26:31;;;;;;;27.33;6.63;;;4.80;99.90;;;;;;5035983;28;20059;-70
2022/02/26 11:29:05;;;;;;;36.65;13.18;;;4.80;99.30;;;;;;5051885;28;20060;-71
2022/02/26 11:31:47;;;;;;;27.88;9.50;;;4.70;98.90;;;;;;5051887;28;20124;-71
2022/02/26 11:34:22;;;;;;;48.08;16.38;;;4.70;99.30;;;;;;5052200;28;20115;-71
2022/02/26 11:37:03;;;;;;;13.35;6.35;;;4.70;99.30;;;;;;5031755;28;20136;-71
2022/02/26 11:39:43;;;;;;;8.52;2.85;;;4.70;99.30;;;;;;5048437;28;20080;-71
2022/02/26 11:42:23;;;;;;;26.08;11.18;;;4.60;98.20;;;;;;5032982;28;20475;-70
2022/02/26 11:45:10;;;;;;;15.45;5.40;;;4.60;99.20;;;;;;5039768;28;20083;-72
2022/02/26 11:48:07;;;;;;;19.95;7.57;;;4.70;99.90;;;;;;5052613;28;20049;-71
2022/02/26 11:50:42;;;;;;;15.75;5.03;;;4.70;99.90;;;;;;5047745;28;20136;-70
2022/02/26 11:53:17;;;;;;;16.70;5.43;;;4.70;99.10;;;;;;5050855;28;20036;-71
2022/02/26 11:55:55;;;;;;;13.07;5.32;;;4.80;99.90;;;;;;5051335;28;20044;-71
2022/02/26 11:58:33;;;;;;;10.93;3.97;;;4.80;98.20;;;;;;5035271;28;20554;-71
2022/02/26 12:01:07;;;;;;;10.63;2.83;;;4.80;96.70;;;;;;5051464;28;20049;-71
2022/02/26 12:03:40;;;;;;;8.23;2.17;;;4.80;98.20;;;;;;5051907;28;20049;-71
2022/02/26 12:06:13;;;;;;;5.03;1.50;;;4.70;99.40;;;;;;5051943;28;20106;-71
2022/02/26 12:08:55;;;;;;;9.52;3.17;;;4.70;98.20;;;;;;5051011;28;20080;-71
2022/02/26 12:11:44;;;;;;;4.75;1.10;;;4.70;98.80;;;;;;5052410;28;20083;-71
2022/02/26 12:14:22;;;;;;;6.00;1.83;;;4.60;96.80;;;;;;5050408;28;20040;-71
2022/02/26 12:16:50;;;;;;;14.77;4.77;;;4.60;97.40;;;;;;5051022;28;20250;-70
2022/02/26 12:19:25;;;;;;;10.93;5.68;;;4.60;97.90;;;;;;5050988;28;20291;-71
2022/02/26 12:21:58;;;;;;;9.20;5.28;;;4.60;95.30;;;;;;5034646;28;20211;-70
2022/02/26 12:24:32;;;;;;;3.72;1.73;;;4.70;99.90;;;;;;5042051;28;20132;-72
2022/02/26 12:26:58;;;;;;;5.70;1.05;;;4.80;93.60;;;;;;5050733;28;20451;-71
2022/02/26 12:29:39;;;;;;;9.93;2.78;;;5.00;93.30;;;;;;5037781;28;20044;-74
2022/02/26 12:32:25;;;;;;;7.25;1.52;;;5.10;95.00;;;;;;5052124;28;20041;-71
2022/02/26 12:35:09;;;;;;;11.52;4.68;;;5.40;94.60;;;;;;5051537;28;20072;-71
2022/02/26 12:37:46;;;;;;;3.75;1.48;;;5.60;92.80;;;;;;5051940;28;20041;-70
2022/02/26 12:40:21;;;;;;;6.03;1.27;;;5.70;90.90;;;;;;5051699;28;20450;-71
2022/02/26 12:43:00;;;;;;;23.20;7.90;;;5.90;93.00;;;;;;5052112;28;20120;-71
2022/02/26 12:45:36;;;;;;;13.45;5.03;;;5.90;94.10;;;;;;5052617;28;20420;-71
2022/02/26 12:48:09;;;;;;;10.60;2.75;;;5.90;94.50;;;;;;5050666;28;20516;-72
2022/02/26 12:50:38;;;;;;;14.90;5.20;;;5.70;94.90;;;;;;5048362;28;20059;-71
2022/02/26 12:53:10;;;;;;;7.60;3.72;;;5.40;93.90;;;;;;5047186;28;20128;-71
2022/02/26 12:55:42;;;;;;;18.42;7.20;;;5.40;94.60;;;;;;5051101;28;20119;-71
2022/02/26 12:58:14;;;;;;;6.65;2.50;;;5.30;95.90;;;;;;5066178;28;20484;-71
2022/02/26 13:00:48;;;;;;;12.38;3.25;;;5.30;95.50;;;;;;5050039;28;20041;-71
2022/02/26 13:03:21;;;;;;;7.65;3.20;;;5.30;94.90;;;;;;5049299;28;20144;-70
2022/02/26 13:06:06;;;;;;;7.68;2.28;;;5.30;93.50;;;;;;5064026;28;20075;-71
2022/02/26 13:08:33;;;;;;;17.58;7.57;;;5.30;92.70;;;;;;5053373;28;20068;-73
2022/02/26 13:11:05;;;;;;;7.38;2.92;;;5.20;92.90;;;;;;5070001;28;20048;-71
2022/02/26 13:13:37;;;;;;;7.22;2.00;;;5.20;95.10;;;;;;5064472;28;20519;-70